createdAt,value
2023-04-01T00:05:01.212Z,10.67
2023-04-01T00:10:11.788Z,10.65
2023-04-01T00:15:19.282Z,10.64
2023-04-01T00:20:27.943Z,10.63
2023-04-01T00:25:36.421Z,10.63
2023-04-01T00:30:44.622Z,10.62
2023-04-01T00:35:52.926Z,10.61
2023-04-01T00:41:02.360Z,10.60
2023-04-01T00:46:09.930Z,10.61
2023-04-01T00:51:23.511Z,10.60
2023-04-01T00:56:38.270Z,10.60
2023-04-01T01:01:46.832Z,10.60
2023-04-01T01:07:03.059Z,10.59
2023-04-01T01:12:16.486Z,10.58
2023-04-01T01:17:35.086Z,10.57
2023-04-01T01:22:56.004Z,10.57
2023-04-01T01:28:18.054Z,10.57
2023-04-01T01:33:43.663Z,10.57
2023-04-01T01:38:53.855Z,10.58
2023-04-01T01:44:02.929Z,10.58
2023-04-01T01:49:13.570Z,10.59
2023-04-01T01:54:22.199Z,10.59
2023-04-01T01:59:31.180Z,10.59
2023-04-01T02:04:40.817Z,10.59
2023-04-01T02:09:48.715Z,10.60
2023-04-01T02:15:02.154Z,10.61
2023-04-01T02:20:16.389Z,10.62
2023-04-01T02:25:29.824Z,10.62
2023-04-01T02:30:39.716Z,10.63
2023-04-01T02:35:48.961Z,10.64
2023-04-01T02:41:03.347Z,10.65
2023-04-01T02:46:11.846Z,10.65
2023-04-01T02:51:20.460Z,10.64
2023-04-01T02:56:28.927Z,10.63
2023-04-01T03:01:37.718Z,10.63
2023-04-01T03:06:46.282Z,10.63
2023-04-01T03:11:54.866Z,10.62
2023-04-01T03:17:02.885Z,10.61
2023-04-01T03:22:11.355Z,10.60
2023-04-01T03:27:18.923Z,10.59
2023-04-01T03:32:28.781Z,10.60
2023-04-01T03:37:37.718Z,10.59
2023-04-01T03:42:46.144Z,10.60
2023-04-01T03:47:55.152Z,10.59
2023-04-01T03:53:03.834Z,10.59
2023-04-01T03:58:12.248Z,10.59
2023-04-01T04:03:21.655Z,10.59
2023-04-01T04:08:30.152Z,10.58
2023-04-01T04:13:38.870Z,10.57
2023-04-01T04:18:47.885Z,10.56
2023-04-01T04:23:56.495Z,10.54
2023-04-01T04:29:05.075Z,10.53
2023-04-01T04:34:13.615Z,10.50
2023-04-01T04:39:21.975Z,10.49
2023-04-01T04:44:31.119Z,10.47
2023-04-01T04:49:40.007Z,10.45
2023-04-01T04:54:50.084Z,10.44
2023-04-01T04:59:57.587Z,10.42
2023-04-01T05:05:25.276Z,10.42
2023-04-01T05:10:33.701Z,10.42
2023-04-01T05:15:42.529Z,10.42
2023-04-01T05:20:55.921Z,10.42
2023-04-01T05:26:08.613Z,10.42
2023-04-01T05:31:17.113Z,10.43
2023-04-01T05:36:27.832Z,10.45
2023-04-01T05:41:37.628Z,10.45
2023-04-01T05:46:46.173Z,10.45
2023-04-01T05:52:00.866Z,10.45
2023-04-01T05:57:09.609Z,10.45
2023-04-01T06:02:19.373Z,10.45
2023-04-01T06:07:27.719Z,10.45
2023-04-01T06:12:49.206Z,10.43
2023-04-01T06:18:30.192Z,10.42
2023-04-01T06:23:51.110Z,10.41
2023-04-01T06:29:44.867Z,10.41
2023-04-01T06:35:19.707Z,10.41
2023-04-01T06:40:56.869Z,10.40
2023-04-01T06:46:12.385Z,10.40
2023-04-01T06:51:57.966Z,10.40
2023-04-01T06:57:37.024Z,10.39
2023-04-01T07:02:55.542Z,10.39
2023-04-01T07:08:07.950Z,10.39
2023-04-01T07:13:20.630Z,10.39
2023-04-01T07:18:40.716Z,10.37
2023-04-01T07:23:50.482Z,10.38
2023-04-01T07:29:20.108Z,10.38
2023-04-01T07:34:42.291Z,10.37
2023-04-01T07:40:03.906Z,10.36
2023-04-01T07:45:27.142Z,10.36
2023-04-01T07:50:43.127Z,10.36
2023-04-01T07:56:01.607Z,10.35
2023-04-01T08:01:23.262Z,10.35
2023-04-01T08:06:35.875Z,10.35
2023-04-01T08:11:58.824Z,10.35
2023-04-01T08:17:35.453Z,10.34
2023-04-01T08:22:47.920Z,10.34
2023-04-01T08:28:12.010Z,10.34
2023-04-01T08:33:27.017Z,10.36
2023-04-01T08:38:47.753Z,10.37
2023-04-01T08:44:22.613Z,10.38
2023-04-01T08:49:59.150Z,10.38
2023-04-01T08:55:49.284Z,10.41
2023-04-01T09:01:00.399Z,10.43
2023-04-01T09:06:39.663Z,10.46
2023-04-01T09:12:04.606Z,10.50
2023-04-01T09:17:41.322Z,10.53
2023-04-01T09:23:04.220Z,10.54
2023-04-01T09:28:21.251Z,10.57
2023-04-01T09:34:04.954Z,10.58
2023-04-01T09:39:40.086Z,10.58
2023-04-01T09:44:57.667Z,10.60
2023-04-01T09:50:26.808Z,10.62
2023-04-01T09:56:17.493Z,10.62
2023-04-01T10:01:51.442Z,10.65
2023-04-01T10:07:25.317Z,10.66
2023-04-01T10:13:00.539Z,10.67
2023-04-01T10:18:48.624Z,10.68
2023-04-01T10:24:17.846Z,10.70
2023-04-01T10:30:23.624Z,10.71
2023-04-01T10:36:12.735Z,10.75
2023-04-01T10:42:05.404Z,10.80
2023-04-01T10:47:49.003Z,10.84
2023-04-01T10:53:33.646Z,10.87
2023-04-01T10:59:28.604Z,10.91
2023-04-01T11:05:30.445Z,10.91
2023-04-01T11:11:37.321Z,10.92
2023-04-01T11:17:00.547Z,10.94
2023-04-01T11:22:26.623Z,10.94
2023-04-01T11:27:53.382Z,10.95
2023-04-01T11:33:06.445Z,10.94
2023-04-01T11:38:27.508Z,10.95
2023-04-01T11:43:46.863Z,10.97
2023-04-01T11:49:39.879Z,10.98
2023-04-01T11:55:11.793Z,11.00
2023-04-01T12:00:34.485Z,11.02
2023-04-01T12:05:48.617Z,11.04
2023-04-01T12:11:02.781Z,11.06
2023-04-01T12:16:22.915Z,11.06
2023-04-01T12:21:38.004Z,11.06
2023-04-01T12:27:04.176Z,11.06
2023-04-01T12:32:24.164Z,11.06
2023-04-01T12:37:43.100Z,11.07
2023-04-01T12:43:07.329Z,11.07
2023-04-01T12:48:40.228Z,11.08
2023-04-01T12:54:08.475Z,11.09
2023-04-01T12:59:32.760Z,11.10
2023-04-01T13:05:01.856Z,11.12
2023-04-01T13:10:16.601Z,11.13
2023-04-01T13:15:31.933Z,11.15
2023-04-01T13:20:52.359Z,11.15
2023-04-01T13:26:16.342Z,11.16
2023-04-01T13:31:36.888Z,11.17
2023-04-01T13:36:53.855Z,11.17
2023-04-01T13:42:14.486Z,11.17
2023-04-01T13:47:47.249Z,11.19
2023-04-01T13:53:17.223Z,11.19
2023-04-01T13:58:48.880Z,11.20
2023-04-01T14:04:37.409Z,11.20
2023-04-01T14:10:13.674Z,11.20
2023-04-01T14:15:41.785Z,11.21
2023-04-01T14:20:57.023Z,11.21
2023-04-01T14:26:34.518Z,11.22
2023-04-01T14:32:05.620Z,11.20
2023-04-01T14:37:25.980Z,11.20
2023-04-01T14:42:58.724Z,11.19
2023-04-01T14:48:18.437Z,11.17
2023-04-01T14:53:33.764Z,11.15
2023-04-01T14:58:52.979Z,11.14
2023-04-01T15:04:08.225Z,11.11
2023-04-01T15:09:24.996Z,11.08
2023-04-01T15:14:49.247Z,11.05
2023-04-01T15:20:14.906Z,11.02
2023-04-01T15:25:40.262Z,10.98
2023-04-01T15:30:57.791Z,10.96
2023-04-01T15:36:16.961Z,10.95
2023-04-01T15:41:32.296Z,10.92
2023-04-01T15:46:49.284Z,10.91
2023-04-01T15:52:14.544Z,10.89
2023-04-01T15:57:31.841Z,10.88
2023-04-01T16:02:47.863Z,10.88
2023-04-01T16:08:12.297Z,10.86
2023-04-01T16:13:32.587Z,10.85
2023-04-01T16:19:00.290Z,10.83
2023-04-01T16:24:16.319Z,10.81
2023-04-01T16:29:33.853Z,10.79
2023-04-01T16:34:46.219Z,10.79
2023-04-01T16:40:05.061Z,10.76
2023-04-01T16:45:27.851Z,10.74
2023-04-01T16:50:48.212Z,10.72
2023-04-01T16:56:02.085Z,10.70
2023-04-01T17:01:15.601Z,10.69
2023-04-01T17:06:34.473Z,10.67
2023-04-01T17:11:50.024Z,10.65
2023-04-01T17:17:05.140Z,10.63
2023-04-01T17:22:25.018Z,10.62
2023-04-01T17:27:43.173Z,10.60
2023-04-01T17:33:03.010Z,10.58
2023-04-01T17:38:22.464Z,10.56
2023-04-01T17:43:42.090Z,10.54
2023-04-01T17:48:54.962Z,10.51
2023-04-01T17:54:18.398Z,10.49
2023-04-01T17:59:34.965Z,10.46
2023-04-01T18:04:55.672Z,10.44
2023-04-01T18:10:16.987Z,10.42
2023-04-01T18:15:34.334Z,10.39
2023-04-01T18:20:56.504Z,10.37
2023-04-01T18:26:14.279Z,10.34
2023-04-01T18:31:25.852Z,10.31
2023-04-01T18:36:44.558Z,10.29
2023-04-01T18:42:02.707Z,10.26
2023-04-01T18:47:20.216Z,10.24
2023-04-01T18:52:34.578Z,10.21
2023-04-01T18:57:49.522Z,10.19
2023-04-01T19:03:05.096Z,10.17
2023-04-01T19:08:23.065Z,10.15
2023-04-01T19:13:36.844Z,10.12
2023-04-01T19:19:04.559Z,10.09
2023-04-01T19:24:41.262Z,10.07
2023-04-01T19:30:01.256Z,10.04
2023-04-01T19:35:21.966Z,10.02
2023-04-01T19:40:54.518Z,9.99
2023-04-01T19:46:10.392Z,9.97
2023-04-01T19:51:26.875Z,9.95
2023-04-01T19:56:42.644Z,9.93
2023-04-01T20:01:55.961Z,9.91
2023-04-01T20:07:09.973Z,9.88
2023-04-01T20:12:27.589Z,9.86
2023-04-01T20:17:43.663Z,9.82
2023-04-01T20:23:22.782Z,9.79
2023-04-01T20:28:40.584Z,9.75
2023-04-01T20:34:08.811Z,9.70
2023-04-01T20:39:44.081Z,9.65
2023-04-01T20:45:02.921Z,9.60
2023-04-01T20:50:22.920Z,9.54
2023-04-01T20:55:56.623Z,9.50
2023-04-01T21:01:16.505Z,9.45
2023-04-01T21:06:39.737Z,9.41
2023-04-01T21:11:55.017Z,9.37
2023-04-01T21:17:11.556Z,9.33
2023-04-01T21:22:47.198Z,9.28
2023-04-01T21:28:09.191Z,9.23
2023-04-01T21:33:33.342Z,9.19
2023-04-01T21:38:59.922Z,9.13
2023-04-01T21:44:28.781Z,9.08
2023-04-01T21:50:06.279Z,9.03
2023-04-01T21:55:39.926Z,8.98
2023-04-01T22:00:56.633Z,8.93
2023-04-01T22:06:24.914Z,8.88
2023-04-01T22:11:46.099Z,8.82
2023-04-01T22:17:04.772Z,8.77
2023-04-01T22:22:21.991Z,8.72
2023-04-01T22:27:38.192Z,8.66
2023-04-01T22:32:49.537Z,8.61
2023-04-01T22:38:06.285Z,8.56
2023-04-01T22:43:19.051Z,8.52
2023-04-01T22:48:34.284Z,8.48
2023-04-01T22:54:02.064Z,8.43
2023-04-01T22:59:16.920Z,8.39
2023-04-01T23:04:33.884Z,8.35
2023-04-01T23:09:42.040Z,8.32
2023-04-01T23:14:53.844Z,8.28
2023-04-01T23:20:10.249Z,8.24
2023-04-01T23:25:30.610Z,8.21
2023-04-01T23:30:54.591Z,8.17
2023-04-01T23:36:08.179Z,8.13
2023-04-01T23:41:29.322Z,8.09
2023-04-01T23:46:39.325Z,8.05
2023-04-01T23:51:56.068Z,8.01
2023-04-01T23:57:07.141Z,7.96
